Time;durP1;ratioP1;P1;durP2;ratioP2;P2;SDS_P1;SDS_P2;PMS_P1;PMS_P2;Temp;Humidity;BMP_temperature;BMP_pressure;BME280_temperature;BME280_humidity;BME280_pressure;Samples;Min_cycle;Max_cycle;Signal;HPM_P1;HPM_P2
2022/11/14 00:02:11;;;;;;;8.20;4.30;;;4.10;99.90;;;;;;4992715;28;20491;-68
2022/11/14 00:04:38;;;;;;;6.10;3.50;;;4.10;99.90;;;;;;4982262;28;20467;-68
2022/11/14 00:07:05;;;;;;;8.13;6.10;;;4.30;99.90;;;;;;4978282;28;20469;-68
2022/11/14 00:09:33;;;;;;;7.13;3.50;;;4.50;99.90;;;;;;4976608;28;20502;-68
2022/11/14 00:12:00;;;;;;;7.27;4.60;;;4.40;99.90;;;;;;4978991;28;20450;-68
2022/11/14 00:14:27;;;;;;;11.17;6.00;;;4.40;99.90;;;;;;4982018;28;20492;-69
2022/11/14 00:16:53;;;;;;;7.50;4.10;;;4.50;99.90;;;;;;4972993;28;20451;-68
2022/11/14 00:19:20;;;;;;;9.90;4.90;;;4.10;99.90;;;;;;4984686;28;20462;-68
2022/11/14 00:21:47;;;;;;;9.40;4.80;;;3.90;99.90;;;;;;4973811;28;20467;-68
2022/11/14 00:24:14;;;;;;;5.63;4.47;;;4.10;99.90;;;;;;4984701;28;20939;-68
2022/11/14 00:26:42;;;;;;;4.47;3.60;;;3.90;99.90;;;;;;4973994;28;20454;-68
2022/11/14 00:29:11;;;;;;;5.87;4.30;;;4.10;99.90;;;;;;4985373;28;20459;-69
2022/11/14 00:31:37;;;;;;;9.10;4.90;;;4.20;99.90;;;;;;4972437;28;20477;-68
2022/11/14 00:34:04;;;;;;;6.63;5.70;;;4.10;99.90;;;;;;4986366;28;20454;-68
2022/11/14 00:36:31;;;;;;;6.93;4.10;;;4.00;99.90;;;;;;4973527;28;20462;-68
2022/11/14 00:38:58;;;;;;;5.50;4.33;;;3.90;99.90;;;;;;4985802;28;20445;-69
2022/11/14 00:41:25;;;;;;;8.97;5.73;;;3.90;99.90;;;;;;4982195;28;20473;-68
2022/11/14 00:43:53;;;;;;;6.20;3.20;;;4.00;99.90;;;;;;4985525;28;20457;-68
2022/11/14 00:46:20;;;;;;;6.90;3.57;;;3.80;99.90;;;;;;4973741;28;20454;-68
2022/11/14 00:48:47;;;;;;;6.43;4.60;;;3.60;99.90;;;;;;4985803;28;20449;-68
2022/11/14 00:51:13;;;;;;;6.27;4.77;;;3.70;99.90;;;;;;4973112;28;20501;-69
2022/11/14 00:53:40;;;;;;;7.13;3.53;;;4.00;99.90;;;;;;4985431;28;20928;-68
2022/11/14 00:56:07;;;;;;;6.07;4.53;;;4.00;99.90;;;;;;4973454;28;20893;-68
2022/11/14 00:58:35;;;;;;;7.07;3.47;;;4.00;99.90;;;;;;4986082;28;20453;-69
2022/11/14 01:01:03;;;;;;;5.03;3.80;;;3.90;99.90;;;;;;4980858;28;20564;-68
2022/11/14 01:03:29;;;;;;;6.00;4.53;;;4.00;99.90;;;;;;4979002;28;20451;-68
2022/11/14 01:05:56;;;;;;;4.83;3.63;;;4.00;99.90;;;;;;4983273;28;20459;-69
2022/11/14 01:08:23;;;;;;;6.60;3.50;;;3.80;99.90;;;;;;4979706;28;20795;-68
2022/11/14 01:10:51;;;;;;;6.23;4.10;;;3.70;99.90;;;;;;4982823;28;20481;-68
2022/11/14 01:13:19;;;;;;;5.20;3.67;;;3.70;99.90;;;;;;4985637;28;20527;-68
2022/11/14 01:15:47;;;;;;;6.63;4.10;;;3.60;99.90;;;;;;4971969;28;20449;-68
2022/11/14 01:18:18;;;;;;;4.33;3.57;;;3.40;99.90;;;;;;4985675;28;20451;-68
2022/11/14 01:20:47;;;;;;;5.30;3.23;;;3.90;99.90;;;;;;4971180;28;20453;-68
2022/11/14 01:23:16;;;;;;;5.03;3.33;;;3.50;99.90;;;;;;4985327;28;20479;-68
2022/11/14 01:25:43;;;;;;;7.03;4.23;;;3.50;99.90;;;;;;4971477;28;20455;-68
2022/11/14 01:28:12;;;;;;;3.63;2.77;;;3.70;99.90;;;;;;4985870;28;20453;-69
2022/11/14 01:30:39;;;;;;;5.57;3.10;;;3.60;99.90;;;;;;4971173;28;20501;-68
2022/11/14 01:33:06;;;;;;;10.40;4.93;;;3.50;99.90;;;;;;4985293;28;20454;-68
2022/11/14 01:35:36;;;;;;;5.37;3.47;;;3.30;99.90;;;;;;4972902;28;20466;-68
2022/11/14 01:38:04;;;;;;;7.13;4.17;;;3.50;99.90;;;;;;4985146;28;20454;-68
2022/11/14 01:40:32;;;;;;;3.90;3.50;;;3.60;99.90;;;;;;4979932;28;20463;-69
2022/11/14 01:43:25;;;;;;;5.87;3.90;;;4.00;99.90;;;;;;4978357;28;20455;-68
2022/11/14 01:45:54;;;;;;;7.23;4.33;;;4.10;99.90;;;;;;4974373;28;20451;-68
2022/11/14 01:48:26;;;;;;;6.67;3.73;;;4.20;99.90;;;;;;4982938;28;20452;-69
2022/11/14 01:50:58;;;;;;;7.00;4.07;;;4.30;99.90;;;;;;4977495;28;20977;-69
2022/11/14 01:53:26;;;;;;;7.60;5.00;;;4.50;99.90;;;;;;4979824;28;20455;-68
2022/11/14 01:55:55;;;;;;;4.70;3.83;;;4.50;79.50;;;;;;4984622;28;20458;-69
2022/11/14 01:58:23;;;;;;;7.07;5.00;;;4.40;99.90;;;;;;4971919;28;20454;-69
2022/11/14 02:00:49;;;;;;;6.30;3.67;;;4.50;99.90;;;;;;4989969;28;20984;-68
2022/11/14 02:03:17;;;;;;;6.30;3.60;;;4.60;63.10;;;;;;4978141;28;20971;-69
2022/11/14 02:05:46;;;;;;;6.00;3.27;;;4.80;39.00;;;;;;4971375;28;20482;-69
2022/11/14 02:08:16;;;;;;;5.23;3.47;;;4.90;1.00;;;;;;4978849;28;20461;-68
2022/11/14 02:10:43;;;;;;;5.33;3.70;;;4.90;1.00;;;;;;4972554;28;20947;-68
2022/11/14 02:13:09;;;;;;;7.63;4.57;;;4.90;1.00;;;;;;4984778;28;20446;-68
2022/11/14 02:15:36;;;;;;;7.27;4.90;;;4.80;3.70;;;;;;4971771;28;20455;-68
2022/11/14 02:18:04;;;;;;;5.13;4.10;;;5.00;5.10;;;;;;4984609;28;20450;-69
2022/11/14 02:20:36;;;;;;;6.03;4.37;;;4.90;11.60;;;;;;4971784;28;20811;-68
2022/11/14 02:23:03;;;;;;;4.70;3.30;;;4.90;27.30;;;;;;4983973;28;20445;-68
2022/11/14 02:25:30;;;;;;;8.20;4.50;;;4.90;25.80;;;;;;4971695;28;20466;-69
2022/11/14 02:27:58;;;;;;;5.53;4.33;;;4.90;1.00;;;;;;4984089;28;21127;-69
2022/11/14 02:30:25;;;;;;;3.83;3.00;;;4.90;1.00;;;;;;4971103;28;20483;-68
2022/11/14 02:32:52;;;;;;;4.93;3.87;;;5.00;6.20;;;;;;4984260;28;20468;-68
2022/11/14 02:35:18;;;;;;;7.37;4.13;;;5.10;16.40;;;;;;4971735;28;20462;-68
2022/11/14 02:37:47;;;;;;;4.20;3.33;;;5.00;13.60;;;;;;4983819;28;20473;-68
2022/11/14 02:40:13;;;;;;;8.50;4.63;;;4.90;20.30;;;;;;4977456;28;20467;-68
2022/11/14 02:42:40;;;;;;;6.10;3.63;;;4.80;83.90;;;;;;4978488;28;20456;-68
2022/11/14 02:45:08;;;;;;;5.07;4.30;;;4.70;99.90;;;;;;4985115;28;20958;-68
2022/11/14 02:47:35;;;;;;;8.33;4.93;;;4.70;99.90;;;;;;4979385;28;20455;-68
2022/11/14 02:50:02;;;;;;;5.33;3.50;;;4.70;99.90;;;;;;4984029;28;20455;-68
2022/11/14 02:52:29;;;;;;;6.10;3.63;;;4.60;99.90;;;;;;4978459;28;20454;-68
2022/11/14 02:54:57;;;;;;;6.70;4.10;;;4.30;99.90;;;;;;4983889;28;20466;-68
2022/11/14 02:57:24;;;;;;;4.73;3.70;;;4.30;99.90;;;;;;4979395;28;20804;-68
2022/11/14 02:59:51;;;;;;;8.17;5.50;;;4.40;99.90;;;;;;4983352;28;20454;-68
2022/11/14 03:02:17;;;;;;;5.80;4.27;;;4.40;99.90;;;;;;4987512;28;20477;-68
2022/11/14 03:04:44;;;;;;;6.07;3.57;;;4.40;99.90;;;;;;4986094;28;20517;-68
2022/11/14 03:07:11;;;;;;;6.00;3.30;;;4.70;99.90;;;;;;4976423;28;20458;-68
2022/11/14 03:09:38;;;;;;;9.80;4.30;;;4.60;99.90;;;;;;4991276;28;20469;-67
2022/11/14 03:12:06;;;;;;;7.17;4.10;;;4.70;99.90;;;;;;4980845;28;20494;-67
2022/11/14 03:14:33;;;;;;;6.80;3.33;;;4.70;99.90;;;;;;4982145;28;20942;-67
2022/11/14 03:17:00;;;;;;;5.13;3.60;;;4.80;99.90;;;;;;4987072;28;20657;-67
2022/11/14 03:19:27;;;;;;;6.87;4.17;;;4.60;99.90;;;;;;4987089;28;20459;-67
2022/11/14 03:21:53;;;;;;;7.90;4.40;;;4.70;99.90;;;;;;4974059;28;20456;-67
2022/11/14 03:24:20;;;;;;;7.83;4.43;;;4.60;99.90;;;;;;4987539;28;20553;-67
2022/11/14 03:26:47;;;;;;;9.33;4.57;;;4.50;99.90;;;;;;4986575;28;20452;-67
2022/11/14 03:29:15;;;;;;;7.20;3.83;;;4.60;99.90;;;;;;4974566;28;20462;-68
2022/11/14 03:31:42;;;;;;;4.83;3.70;;;4.60;99.90;;;;;;4985953;28;20492;-67
2022/11/14 03:34:09;;;;;;;5.90;4.63;;;4.60;99.90;;;;;;4976385;28;20448;-67
2022/11/14 03:36:36;;;;;;;9.20;4.50;;;4.60;99.90;;;;;;4988176;28;20454;-67
2022/11/14 03:39:04;;;;;;;6.30;3.93;;;4.40;99.90;;;;;;4976873;28;20458;-67
2022/11/14 03:41:31;;;;;;;3.70;3.00;;;4.30;99.90;;;;;;4987296;28;20468;-67
2022/11/14 03:43:58;;;;;;;7.33;4.53;;;4.10;99.90;;;;;;4987882;28;20450;-68
2022/11/14 03:46:27;;;;;;;6.80;4.27;;;4.10;99.90;;;;;;4975424;28;20786;-67
2022/11/14 03:48:53;;;;;;;4.23;3.20;;;4.00;99.90;;;;;;4987602;28;20450;-67
2022/11/14 03:51:20;;;;;;;8.33;4.03;;;4.00;99.90;;;;;;4974999;28;20484;-68
2022/11/14 03:53:47;;;;;;;6.10;3.83;;;4.10;99.90;;;;;;4986838;28;20452;-68
2022/11/14 03:56:14;;;;;;;5.90;4.20;;;4.10;99.90;;;;;;4975275;28;20794;-67
2022/11/14 03:58:40;;;;;;;4.77;3.60;;;4.20;99.90;;;;;;4987444;28;20455;-67
2022/11/14 04:01:07;;;;;;;9.97;5.13;;;4.00;99.90;;;;;;4983090;28;20477;-67
2022/11/14 04:03:36;;;;;;;11.13;4.90;;;4.00;99.90;;;;;;4980678;28;20468;-68
2022/11/14 04:06:03;;;;;;;5.30;2.90;;;4.00;99.90;;;;;;4984214;28;20454;-67
2022/11/14 04:08:30;;;;;;;5.63;3.73;;;4.00;99.90;;;;;;4981624;28;20459;-67
2022/11/14 04:10:56;;;;;;;5.73;3.90;;;4.10;99.90;;;;;;4982842;28;20500;-68
2022/11/14 04:13:23;;;;;;;6.43;4.00;;;4.10;99.90;;;;;;4986733;28;20451;-67
2022/11/14 04:15:55;;;;;;;5.70;4.30;;;4.10;99.90;;;;;;4972860;28;20454;-67
2022/11/14 04:18:22;;;;;;;5.23;3.93;;;4.00;99.90;;;;;;4986750;28;20455;-69
2022/11/14 04:20:51;;;;;;;5.83;3.97;;;4.10;99.90;;;;;;4972732;28;20474;-67
2022/11/14 04:23:18;;;;;;;4.43;3.73;;;4.20;99.90;;;;;;4986392;28;20458;-67
2022/11/14 04:25:45;;;;;;;5.50;3.93;;;4.10;99.90;;;;;;4973035;28;20457;-67
2022/11/14 04:28:13;;;;;;;5.20;3.30;;;4.30;99.90;;;;;;4986618;28;20755;-67
2022/11/14 04:30:40;;;;;;;11.77;3.10;;;4.20;99.90;;;;;;4972524;28;20851;-67
2022/11/14 04:33:07;;;;;;;4.50;3.47;;;4.10;99.90;;;;;;4986372;28;20458;-68
2022/11/14 04:35:33;;;;;;;6.13;3.83;;;4.10;99.90;;;;;;4974097;28;20450;-67
2022/11/14 04:38:02;;;;;;;7.00;4.50;;;4.30;99.90;;;;;;4986288;28;20467;-67
2022/11/14 04:40:28;;;;;;;5.80;3.40;;;4.50;99.90;;;;;;4981017;28;21151;-68
2022/11/14 04:42:55;;;;;;;6.67;3.83;;;4.50;99.90;;;;;;4979602;28;20449;-69
2022/11/14 04:45:22;;;;;;;5.40;3.50;;;4.50;99.90;;;;;;4984495;28;20448;-68
2022/11/14 04:47:49;;;;;;;5.37;3.37;;;4.40;99.90;;;;;;4986201;28;20460;-68
2022/11/14 04:50:15;;;;;;;4.73;2.70;;;4.30;99.90;;;;;;4977902;28;20455;-69
2022/11/14 04:52:42;;;;;;;4.93;3.30;;;4.20;99.90;;;;;;4985259;28;20508;-68
2022/11/14 04:55:11;;;;;;;5.47;3.23;;;4.20;99.90;;;;;;4985595;28;20798;-68
2022/11/14 04:57:37;;;;;;;8.30;3.77;;;4.20;99.90;;;;;;4978970;28;20463;-68
2022/11/14 05:00:06;;;;;;;5.30;3.37;;;4.20;99.90;;;;;;4979575;28;21000;-68
2022/11/14 05:02:32;;;;;;;9.23;4.40;;;4.20;99.90;;;;;;4987317;28;20458;-69
2022/11/14 05:04:59;;;;;;;6.27;4.17;;;4.20;99.90;;;;;;4989864;28;20739;-69
2022/11/14 05:07:26;;;;;;;5.80;3.80;;;4.20;99.90;;;;;;4991570;28;20453;-69
2022/11/14 05:09:53;;;;;;;8.10;3.63;;;4.20;99.90;;;;;;4990197;28;20465;-68
2022/11/14 05:12:21;;;;;;;3.10;2.37;;;4.20;99.90;;;;;;4977905;28;20485;-68
2022/11/14 05:14:48;;;;;;;4.77;3.70;;;4.10;99.90;;;;;;4974933;28;20457;-69
2022/11/14 05:17:15;;;;;;;5.93;3.70;;;4.10;99.90;;;;;;4988559;28;20446;-69
2022/11/14 05:19:42;;;;;;;6.37;4.07;;;4.10;99.90;;;;;;4980685;28;20451;-71
2022/11/14 05:22:08;;;;;;;5.13;3.03;;;4.00;99.90;;;;;;4983805;28;20455;-71
2022/11/14 05:24:35;;;;;;;4.30;3.07;;;4.00;99.90;;;;;;4973990;28;20450;-70
2022/11/14 05:27:02;;;;;;;7.63;3.53;;;4.20;99.90;;;;;;4980334;28;20533;-70
2022/11/14 05:29:30;;;;;;;8.97;5.30;;;4.10;99.90;;;;;;4984173;28;20450;-69
2022/11/14 05:31:57;;;;;;;5.87;3.40;;;4.20;99.90;;;;;;4979367;28;20485;-69
2022/11/14 05:34:25;;;;;;;5.07;3.20;;;4.30;99.90;;;;;;4987300;28;20505;-69
2022/11/14 05:36:51;;;;;;;5.73;3.90;;;4.30;99.90;;;;;;4984702;28;20445;-69
2022/11/14 05:39:18;;;;;;;4.97;3.50;;;4.50;99.90;;;;;;4989182;28;20906;-70
2022/11/14 05:41:45;;;;;;;7.13;3.53;;;4.30;99.90;;;;;;4981365;28;20479;-70
2022/11/14 05:44:12;;;;;;;4.10;3.07;;;4.20;99.90;;;;;;4987874;28;20462;-69
2022/11/14 05:46:40;;;;;;;5.63;4.53;;;4.20;99.90;;;;;;4983462;28;20455;-68
2022/11/14 05:49:07;;;;;;;9.07;4.43;;;4.10;99.90;;;;;;4985607;28;20469;-68
2022/11/14 05:51:33;;;;;;;6.53;3.63;;;4.30;99.90;;;;;;4972402;28;20487;-69
2022/11/14 05:54:00;;;;;;;7.30;3.97;;;4.20;99.90;;;;;;4984774;28;20469;-69
2022/11/14 05:56:27;;;;;;;5.27;4.20;;;4.30;99.90;;;;;;4972153;28;20450;-69
2022/11/14 05:58:54;;;;;;;4.70;2.80;;;4.10;99.90;;;;;;4984736;28;20461;-69
2022/11/14 06:01:21;;;;;;;4.70;2.77;;;4.10;99.90;;;;;;4982331;28;20477;-69
2022/11/14 06:03:49;;;;;;;5.00;3.00;;;4.30;99.90;;;;;;4986987;28;20454;-69
2022/11/14 06:06:19;;;;;;;3.90;3.13;;;4.20;99.90;;;;;;4971613;28;21312;-69
2022/11/14 06:08:47;;;;;;;6.97;3.27;;;4.20;99.90;;;;;;4979261;28;20481;-70
2022/11/14 06:11:16;;;;;;;5.80;2.80;;;4.20;99.90;;;;;;4973904;28;20482;-69
2022/11/14 06:13:43;;;;;;;5.70;3.23;;;4.20;99.90;;;;;;4984504;28;20811;-69
2022/11/14 06:16:12;;;;;;;3.57;3.00;;;4.10;99.90;;;;;;4971447;28;20527;-69
2022/11/14 06:18:40;;;;;;;6.00;4.43;;;4.20;99.90;;;;;;4984275;28;20461;-68
2022/11/14 06:21:11;;;;;;;6.60;3.93;;;4.30;99.90;;;;;;4972203;28;20793;-69
2022/11/14 06:23:39;;;;;;;6.03;4.23;;;4.40;99.90;;;;;;4978043;28;20449;-69
2022/11/14 06:26:08;;;;;;;4.37;3.00;;;4.50;99.90;;;;;;4977946;28;20455;-69
2022/11/14 06:28:35;;;;;;;4.93;3.60;;;4.50;99.90;;;;;;4978723;28;20458;-69
2022/11/14 06:31:03;;;;;;;5.80;3.93;;;4.60;99.90;;;;;;4976985;28;20465;-69
2022/11/14 06:33:34;;;;;;;5.10;2.83;;;4.60;99.90;;;;;;4979558;28;20468;-69
2022/11/14 06:36:03;;;;;;;4.83;3.30;;;4.80;99.90;;;;;;4976660;28;20500;-70
2022/11/14 06:38:33;;;;;;;5.00;3.60;;;4.80;99.90;;;;;;4980544;28;20461;-69
2022/11/14 06:41:04;;;;;;;5.00;3.50;;;4.90;99.90;;;;;;4985409;28;20458;-68
2022/11/14 06:43:33;;;;;;;7.60;3.73;;;4.90;99.90;;;;;;4981499;28;20453;-69
2022/11/14 06:46:00;;;;;;;13.67;3.07;;;4.90;99.90;;;;;;4974361;28;20550;-69
2022/11/14 06:48:27;;;;;;;3.80;2.80;;;5.00;99.90;;;;;;4981937;28;20458;-68
2022/11/14 06:50:54;;;;;;;8.20;3.73;;;5.20;99.90;;;;;;4974231;28;20456;-70
2022/11/14 06:53:21;;;;;;;4.07;3.53;;;5.30;99.90;;;;;;4981911;28;20449;-69
2022/11/14 06:55:58;;;;;;;5.43;2.90;;;5.30;99.90;;;;;;4974010;28;20464;-68
2022/11/14 06:58:27;;;;;;;3.70;2.77;;;5.30;99.90;;;;;;4983865;28;20809;-69
2022/11/14 07:00:54;;;;;;;5.97;3.13;;;5.40;99.90;;;;;;4978885;28;20539;-68
2022/11/14 07:03:21;;;;;;;6.53;2.90;;;5.40;99.90;;;;;;4977873;28;20462;-68
2022/11/14 07:05:48;;;;;;;6.57;3.60;;;5.50;99.90;;;;;;4983572;28;20964;-69
2022/11/14 07:08:15;;;;;;;4.07;3.13;;;5.60;99.90;;;;;;4977287;28;20489;-69
2022/11/14 07:10:42;;;;;;;7.93;4.37;;;5.40;99.90;;;;;;4983308;28;20470;-68
2022/11/14 07:13:11;;;;;;;3.97;3.00;;;5.20;99.90;;;;;;4984514;28;20493;-69
2022/11/14 07:15:38;;;;;;;4.80;3.40;;;5.10;99.90;;;;;;4971134;28;20483;-68
2022/11/14 07:18:05;;;;;;;4.27;2.47;;;5.00;99.90;;;;;;4984273;28;20492;-69
2022/11/14 07:20:32;;;;;;;4.43;3.37;;;5.10;99.90;;;;;;4971857;28;20948;-69
2022/11/14 07:22:58;;;;;;;4.80;3.00;;;5.10;99.90;;;;;;4983644;28;20465;-68
2022/11/14 07:25:25;;;;;;;4.93;3.57;;;5.10;99.90;;;;;;4971037;28;20464;-69
2022/11/14 07:27:52;;;;;;;7.40;3.33;;;5.10;99.90;;;;;;4984972;28;20479;-68
2022/11/14 07:30:20;;;;;;;3.50;3.20;;;5.00;99.90;;;;;;4994378;28;20455;-69
2022/11/14 07:32:54;;;;;;;4.20;3.67;;;5.00;99.90;;;;;;4978855;28;20486;-68
2022/11/14 07:35:20;;;;;;;5.10;3.00;;;5.10;99.90;;;;;;4984748;28;20454;-69
2022/11/14 07:37:47;;;;;;;3.80;2.90;;;5.10;99.90;;;;;;4977662;28;20462;-69
2022/11/14 07:40:14;;;;;;;4.47;3.30;;;5.10;99.90;;;;;;4984491;28;20458;-68
2022/11/14 07:42:41;;;;;;;7.97;3.60;;;5.10;99.90;;;;;;4980863;28;20458;-69
2022/11/14 07:45:10;;;;;;;6.10;3.47;;;5.30;99.90;;;;;;4984472;28;20454;-69
2022/11/14 07:47:38;;;;;;;5.47;3.77;;;5.20;99.90;;;;;;4974276;28;20463;-68
2022/11/14 07:50:05;;;;;;;3.10;2.50;;;5.30;99.90;;;;;;4985500;28;20466;-70
2022/11/14 07:52:32;;;;;;;3.40;2.73;;;5.40;99.90;;;;;;4994079;28;20494;-70
2022/11/14 07:54:59;;;;;;;6.67;3.30;;;5.40;99.90;;;;;;4983217;28;20742;-69
2022/11/14 07:57:25;;;;;;;4.27;2.70;;;5.80;99.90;;;;;;4978533;28;20458;-70
2022/11/14 07:59:52;;;;;;;4.00;3.20;;;6.30;99.90;;;;;;4982759;28;20461;-69
2022/11/14 08:02:19;;;;;;;6.40;3.50;;;6.50;99.90;;;;;;4987196;28;20477;-70
2022/11/14 08:04:47;;;;;;;5.63;4.33;;;6.60;99.90;;;;;;4985331;28;20453;-70
2022/11/14 08:07:14;;;;;;;3.43;2.27;;;6.20;99.90;;;;;;4974928;28;20461;-70
2022/11/14 08:09:41;;;;;;;5.83;3.53;;;6.20;99.90;;;;;;4990714;28;20471;-70
2022/11/14 08:12:07;;;;;;;4.57;2.30;;;6.40;99.90;;;;;;4980298;28;20840;-69
2022/11/14 08:14:34;;;;;;;4.50;3.67;;;6.30;99.90;;;;;;4981125;28;20462;-70
2022/11/14 08:17:01;;;;;;;4.70;2.87;;;6.20;99.90;;;;;;4973282;28;20461;-69
2022/11/14 08:19:28;;;;;;;2.83;2.23;;;6.30;99.90;;;;;;4986926;28;20459;-69
2022/11/14 08:21:56;;;;;;;4.60;3.47;;;6.30;99.90;;;;;;4992825;28;20811;-69
2022/11/14 08:24:23;;;;;;;5.43;2.67;;;6.30;99.90;;;;;;4980134;28;20453;-70
2022/11/14 08:26:50;;;;;;;4.10;2.50;;;6.50;99.90;;;;;;4979717;28;20456;-69
2022/11/14 08:29:16;;;;;;;11.57;3.47;;;6.70;99.90;;;;;;4979168;28;20454;-69
2022/11/14 08:31:45;;;;;;;3.90;2.20;;;6.90;99.90;;;;;;4980908;28;20465;-69
2022/11/14 08:34:12;;;;;;;7.13;3.70;;;7.00;99.90;;;;;;4979021;28;20957;-69
2022/11/14 08:36:38;;;;;;;3.90;2.80;;;7.20;99.90;;;;;;4980989;28;20470;-68
2022/11/14 08:39:07;;;;;;;4.93;2.73;;;7.30;99.90;;;;;;4978616;28;20454;-68
2022/11/14 08:41:33;;;;;;;2.20;1.87;;;7.30;99.90;;;;;;4989618;28;20450;-68
2022/11/14 08:44:00;;;;;;;5.10;2.80;;;7.30;99.90;;;;;;4979780;28;20537;-68
2022/11/14 08:46:27;;;;;;;4.93;2.47;;;7.40;99.90;;;;;;4984871;28;20788;-68
2022/11/14 08:48:54;;;;;;;4.73;3.07;;;7.40;99.90;;;;;;4975053;28;20451;-69
2022/11/14 08:51:20;;;;;;;6.10;2.80;;;7.40;99.90;;;;;;4985120;28;20469;-68
2022/11/14 08:53:47;;;;;;;5.73;2.23;;;7.40;99.90;;;;;;4974529;28;20487;-67
2022/11/14 08:56:15;;;;;;;3.40;2.33;;;7.50;99.90;;;;;;4984483;28;20455;-68
2022/11/14 08:58:42;;;;;;;4.00;2.93;;;7.50;99.90;;;;;;4975461;28;20457;-68
2022/11/14 09:01:10;;;;;;;2.70;1.80;;;7.60;99.90;;;;;;4992925;28;20483;-68
2022/11/14 09:03:37;;;;;;;5.00;2.80;;;7.60;99.90;;;;;;4979264;28;20460;-67
2022/11/14 09:06:04;;;;;;;4.40;2.30;;;7.60;99.90;;;;;;4982928;28;20551;-68
2022/11/14 09:08:31;;;;;;;3.57;2.47;;;7.60;99.90;;;;;;4981263;28;20473;-68
2022/11/14 09:11:00;;;;;;;4.67;3.30;;;7.60;99.90;;;;;;4981765;28;20696;-68
2022/11/14 09:13:28;;;;;;;4.80;2.67;;;7.60;99.90;;;;;;4985701;28;20500;-68
2022/11/14 09:15:55;;;;;;;4.77;2.57;;;7.70;99.90;;;;;;4972328;28;20466;-68
2022/11/14 09:18:22;;;;;;;7.03;3.50;;;7.70;99.90;;;;;;4986014;28;20511;-68
2022/11/14 09:20:48;;;;;;;4.80;3.10;;;7.80;99.90;;;;;;4972431;28;20457;-67
2022/11/14 09:23:15;;;;;;;3.27;2.20;;;7.80;99.90;;;;;;4985884;28;20464;-67
2022/11/14 09:25:42;;;;;;;4.67;2.83;;;7.90;99.90;;;;;;4971904;28;20450;-68
2022/11/14 09:28:10;;;;;;;4.13;3.03;;;8.00;99.90;;;;;;4986461;28;20814;-67
2022/11/14 09:30:39;;;;;;;2.93;1.87;;;8.00;99.90;;;;;;4972727;28;20468;-67
2022/11/14 09:33:06;;;;;;;3.20;1.77;;;8.10;99.90;;;;;;4985448;28;20544;-67
2022/11/14 09:35:35;;;;;;;3.47;2.17;;;8.20;99.90;;;;;;4973001;28;20814;-67
2022/11/14 09:38:02;;;;;;;2.40;1.60;;;8.20;99.90;;;;;;4985049;28;20933;-68
2022/11/14 09:40:29;;;;;;;6.40;2.50;;;8.40;99.90;;;;;;4980180;28;20453;-67
2022/11/14 09:43:23;;;;;;;2.27;1.50;;;8.40;99.90;;;;;;4985311;28;21124;-68
2022/11/14 09:45:53;;;;;;;3.13;1.80;;;8.50;99.90;;;;;;4984996;28;20490;-67
2022/11/14 09:48:24;;;;;;;2.60;1.87;;;8.60;99.90;;;;;;4972331;28;20453;-67
2022/11/14 09:51:01;;;;;;;2.70;1.80;;;8.60;99.90;;;;;;4984855;28;20454;-67
2022/11/14 09:53:33;;;;;;;1.87;1.50;;;8.80;99.90;;;;;;4972261;28;20473;-68
2022/11/14 09:56:00;;;;;;;4.70;2.13;;;8.80;99.90;;;;;;4983869;28;20448;-67
2022/11/14 09:58:27;;;;;;;3.30;2.60;;;8.90;99.90;;;;;;4972465;28;20457;-67
2022/11/14 10:01:01;;;;;;;4.03;2.13;;;9.00;99.90;;;;;;4990314;28;20468;-68
2022/11/14 10:03:41;;;;;;;2.80;2.30;;;9.10;99.90;;;;;;4989901;28;20448;-67
2022/11/14 10:06:21;;;;;;;3.20;2.33;;;9.10;99.90;;;;;;4971702;28;20442;-67
2022/11/14 10:09:02;;;;;;;1.93;1.33;;;9.10;99.90;;;;;;4979174;28;20448;-68
2022/11/14 10:11:35;;;;;;;2.33;2.00;;;9.10;99.90;;;;;;4974855;28;20453;-67
2022/11/14 10:14:45;;;;;;;2.70;1.73;;;9.30;99.90;;;;;;4983562;28;20486;-67
2022/11/14 10:17:29;;;;;;;3.70;2.40;;;9.50;99.90;;;;;;4971813;28;20965;-67
2022/11/14 10:20:03;;;;;;;5.90;2.60;;;9.70;99.90;;;;;;4974244;28;20453;-68
2022/11/14 10:22:48;;;;;;;2.20;1.73;;;9.90;99.90;;;;;;4981050;28;20457;-67
2022/11/14 10:25:23;;;;;;;2.40;2.00;;;10.00;99.90;;;;;;4972027;28;20461;-67
2022/11/14 10:28:04;;;;;;;6.93;2.97;;;10.00;99.90;;;;;;4972408;28;20527;-67
2022/11/14 10:30:39;;;;;;;2.23;1.70;;;10.00;99.90;;;;;;4981834;28;20468;-68
2022/11/14 10:33:21;;;;;;;2.90;1.87;;;10.00;99.90;;;;;;4976903;28;20479;-68
2022/11/14 10:35:55;;;;;;;2.37;1.90;;;10.10;99.90;;;;;;4977694;28;20456;-67
2022/11/14 10:38:29;;;;;;;3.43;1.87;;;10.10;99.90;;;;;;4980176;28;20813;-68
2022/11/14 10:41:00;;;;;;;3.40;2.13;;;10.10;99.90;;;;;;4984785;28;20453;-68
2022/11/14 10:43:33;;;;;;;2.67;1.87;;;10.20;99.90;;;;;;4981575;28;20452;-67
2022/11/14 10:46:04;;;;;;;3.90;2.20;;;10.20;99.90;;;;;;4977762;28;20800;-66
2022/11/14 10:48:35;;;;;;;3.23;1.50;;;10.30;99.90;;;;;;4980883;28;20449;-67
2022/11/14 10:51:06;;;;;;;2.43;1.87;;;10.40;99.90;;;;;;4990315;28;20460;-67
2022/11/14 10:53:45;;;;;;;3.20;2.00;;;10.50;99.90;;;;;;4991744;28;20774;-67
2022/11/14 10:56:13;;;;;;;1.83;1.27;;;10.60;99.90;;;;;;4983732;28;20457;-67
2022/11/14 10:58:40;;;;;;;3.97;1.97;;;10.70;99.90;;;;;;4972522;28;20457;-67
2022/11/14 11:01:32;;;;;;;2.40;1.93;;;10.80;99.90;;;;;;4991226;28;20476;-67
2022/11/14 11:04:12;;;;;;;2.40;1.70;;;10.80;99.90;;;;;;4987102;28;20465;-67
2022/11/14 11:06:39;;;;;;;2.47;2.07;;;10.70;99.90;;;;;;4974745;28;20446;-67
2022/11/14 11:11:56;;;;;;;2.60;1.77;;;10.80;99.90;;;;;;4989876;28;20433;-67
2022/11/14 11:14:23;;;;;;;3.20;2.20;;;10.90;99.90;;;;;;4985838;28;20535;-67
2022/11/14 11:17:07;;;;;;;2.03;1.53;;;11.00;99.90;;;;;;4976236;28;20967;-68
2022/11/14 11:19:35;;;;;;;3.23;1.63;;;11.10;99.90;;;;;;4988420;28;20449;-68
2022/11/14 11:22:02;;;;;;;3.03;2.10;;;11.20;99.90;;;;;;4987080;28;20454;-67
2022/11/14 11:24:33;;;;;;;3.03;1.90;;;11.30;99.90;;;;;;4975377;28;20458;-67
2022/11/14 11:27:14;;;;;;;1.40;1.20;;;11.50;99.90;;;;;;4986153;28;20453;-67
2022/11/14 11:29:41;;;;;;;2.43;1.43;;;11.50;99.90;;;;;;4977127;28;20483;-68
2022/11/14 11:32:08;;;;;;;3.60;1.43;;;11.60;99.90;;;;;;4985086;28;20957;-68
2022/11/14 11:34:36;;;;;;;2.10;1.30;;;11.60;99.90;;;;;;4978429;28;20852;-67
2022/11/14 11:37:12;;;;;;;2.40;1.40;;;11.60;99.90;;;;;;4984437;28;20789;-67
2022/11/14 11:39:42;;;;;;;2.40;1.50;;;11.60;99.90;;;;;;4979340;28;20475;-67
2022/11/14 11:42:18;;;;;;;1.60;1.03;;;11.60;99.90;;;;;;4982963;28;20459;-67
2022/11/14 11:44:50;;;;;;;5.00;1.00;;;11.60;72.30;;;;;;4981182;28;20457;-67
2022/11/14 11:47:19;;;;;;;4.43;0.97;;;11.70;87.70;;;;;;4979774;28;20449;-67
2022/11/14 11:49:48;;;;;;;1.83;0.93;;;11.60;47.20;;;;;;4981882;28;20464;-67
2022/11/14 11:52:23;;;;;;;2.20;1.20;;;11.50;21.60;;;;;;4979958;28;20802;-67
2022/11/14 11:54:58;;;;;;;2.70;1.23;;;11.50;99.90;;;;;;4982979;28;20990;-67
2022/11/14 11:57:31;;;;;;;2.20;0.87;;;11.60;99.90;;;;;;4976764;28;20874;-68
2022/11/14 12:00:05;;;;;;;1.37;0.93;;;11.50;99.90;;;;;;4985568;28;20469;-67
2022/11/14 12:02:31;;;;;;;1.47;1.17;;;11.40;99.90;;;;;;4974540;28;20446;-68
2022/11/14 12:05:00;;;;;;;1.10;0.90;;;11.40;99.90;;;;;;4986441;28;20977;-67
2022/11/14 12:07:37;;;;;;;2.30;0.93;;;11.40;99.90;;;;;;4974044;28;20465;-68
2022/11/14 12:10:11;;;;;;;2.03;1.07;;;11.40;99.90;;;;;;4976286;28;20790;-67
2022/11/14 12:13:03;;;;;;;2.30;1.60;;;11.40;99.90;;;;;;4983554;28;20460;-67
2022/11/14 12:15:40;;;;;;;1.53;1.00;;;11.50;29.40;;;;;;4967750;28;20470;-67
2022/11/14 12:18:35;;;;;;;1.60;1.00;;;11.50;1.00;;;;;;4974092;28;20450;-67
2022/11/14 12:21:16;;;;;;;1.63;0.80;;;11.70;1.00;;;;;;4983898;28;20824;-67
2022/11/14 12:24:05;;;;;;;1.33;1.10;;;11.80;1.00;;;;;;4973803;28;20472;-67
2022/11/14 12:26:48;;;;;;;1.20;0.83;;;11.90;1.00;;;;;;4977109;28;20962;-67
2022/11/14 12:29:41;;;;;;;1.53;0.80;;;12.00;1.00;;;;;;4981425;28;20515;-67
2022/11/14 12:32:14;;;;;;;1.73;1.10;;;12.00;1.00;;;;;;4974258;28;20446;-68
2022/11/14 12:34:44;;;;;;;2.30;1.10;;;12.50;1.00;;;;;;4977630;28;20477;-67
2022/11/14 12:37:18;;;;;;;1.97;1.10;;;12.90;99.90;;;;;;4982489;28;20450;-68
2022/11/14 12:39:57;;;;;;;1.73;1.10;;;13.00;1.00;;;;;;4988356;28;20465;-67
2022/11/14 12:42:23;;;;;;;1.60;1.20;;;12.90;99.90;;;;;;4980363;28;20461;-68
2022/11/14 12:44:50;;;;;;;2.43;1.20;;;12.90;1.00;;;;;;4985438;28;20465;-67
2022/11/14 12:47:22;;;;;;;1.70;1.03;;;13.00;1.00;;;;;;4974666;28;20922;-68
2022/11/14 12:50:01;;;;;;;1.87;1.10;;;13.10;1.00;;;;;;4984401;28;20454;-68
2022/11/14 12:52:50;;;;;;;2.20;1.10;;;13.20;99.90;;;;;;4990452;28;20988;-68
2022/11/14 12:55:56;;;;;;;2.13;1.27;;;13.30;99.90;;;;;;4992947;28;20788;-68
2022/11/14 12:58:59;;;;;;;1.60;0.97;;;13.10;99.90;;;;;;4985495;28;20964;-68
2022/11/14 13:01:47;;;;;;;3.83;2.03;;;13.30;29.40;;;;;;4984811;28;20484;-68
2022/11/14 13:04:28;;;;;;;6.23;1.10;;;13.40;99.90;;;;;;4973445;28;20541;-68
2022/11/14 13:07:16;;;;;;;3.20;1.43;;;13.40;1.00;;;;;;4985519;28;20490;-67
2022/11/14 13:10:15;;;;;;;3.03;1.20;;;13.60;1.00;;;;;;4979286;28;20480;-68
2022/11/14 13:24:09;;;;;;;4.00;1.10;;;13.50;1.00;;;;;;4972975;28;20485;-68